sensor_id;sensor_type;location;lat;lon;timestamp;P1;durP1;ratioP1;P2;durP2;ratioP2
10831;SDS011;5469;48.574;8.768;2023-06-22T00:02:08;3.40;;;2.65;;
10831;SDS011;5469;48.574;8.768;2023-06-22T00:04:42;2.88;;;2.58;;
10831;SDS011;5469;48.574;8.768;2023-06-22T00:07:17;3.17;;;2.88;;
10831;SDS011;5469;48.574;8.768;2023-06-22T00:09:54;3.80;;;2.78;;
10831;SDS011;5469;48.574;8.768;2023-06-22T00:12:28;2.85;;;2.38;;
10831;SDS011;5469;48.574;8.768;2023-06-22T00:15:04;4.57;;;2.63;;
10831;SDS011;5469;48.574;8.768;2023-06-22T00:17:40;3.17;;;2.88;;
10831;SDS011;5469;48.574;8.768;2023-06-22T00:20:15;5.15;;;3.00;;
10831;SDS011;5469;48.574;8.768;2023-06-22T00:22:51;3.20;;;2.80;;
10831;SDS011;5469;48.574;8.768;2023-06-22T00:25:27;3.10;;;2.80;;
10831;SDS011;5469;48.574;8.768;2023-06-22T00:28:03;5.93;;;2.60;;
10831;SDS011;5469;48.574;8.768;2023-06-22T00:30:40;2.75;;;2.50;;
10831;SDS011;5469;48.574;8.768;2023-06-22T00:33:15;3.22;;;2.58;;
10831;SDS011;5469;48.574;8.768;2023-06-22T00:35:50;3.03;;;2.50;;
10831;SDS011;5469;48.574;8.768;2023-06-22T00:38:26;4.78;;;2.80;;
10831;SDS011;5469;48.574;8.768;2023-06-22T00:41:02;2.58;;;2.20;;
10831;SDS011;5469;48.574;8.768;2023-06-22T00:43:37;3.97;;;2.80;;
10831;SDS011;5469;48.574;8.768;2023-06-22T00:46:13;4.80;;;2.85;;
10831;SDS011;5469;48.574;8.768;2023-06-22T00:48:49;3.33;;;3.03;;
10831;SDS011;5469;48.574;8.768;2023-06-22T00:51:28;3.65;;;2.60;;
10831;SDS011;5469;48.574;8.768;2023-06-22T00:54:04;3.47;;;3.03;;
10831;SDS011;5469;48.574;8.768;2023-06-22T00:56:40;2.85;;;2.42;;
10831;SDS011;5469;48.574;8.768;2023-06-22T00:59:17;2.85;;;2.60;;
10831;SDS011;5469;48.574;8.768;2023-06-22T01:01:52;5.45;;;2.53;;
10831;SDS011;5469;48.574;8.768;2023-06-22T01:04:34;4.85;;;3.20;;
10831;SDS011;5469;48.574;8.768;2023-06-22T01:07:10;4.45;;;2.78;;
10831;SDS011;5469;48.574;8.768;2023-06-22T01:09:57;2.47;;;2.30;;
10831;SDS011;5469;48.574;8.768;2023-06-22T01:12:42;4.13;;;2.55;;
10831;SDS011;5469;48.574;8.768;2023-06-22T01:15:25;3.75;;;3.15;;
10831;SDS011;5469;48.574;8.768;2023-06-22T01:18:06;5.63;;;2.90;;
10831;SDS011;5469;48.574;8.768;2023-06-22T01:20:43;4.25;;;2.75;;
10831;SDS011;5469;48.574;8.768;2023-06-22T01:23:21;5.32;;;2.70;;
10831;SDS011;5469;48.574;8.768;2023-06-22T01:26:03;3.35;;;2.78;;
10831;SDS011;5469;48.574;8.768;2023-06-22T01:28:48;2.85;;;2.47;;
10831;SDS011;5469;48.574;8.768;2023-06-22T01:31:26;3.10;;;2.80;;
10831;SDS011;5469;48.574;8.768;2023-06-22T01:34:03;3.78;;;2.47;;
10831;SDS011;5469;48.574;8.768;2023-06-22T01:36:39;2.78;;;2.58;;
10831;SDS011;5469;48.574;8.768;2023-06-22T01:39:15;3.20;;;2.85;;
10831;SDS011;5469;48.574;8.768;2023-06-22T01:41:51;4.65;;;2.58;;
10831;SDS011;5469;48.574;8.768;2023-06-22T01:44:28;3.10;;;2.60;;
10831;SDS011;5469;48.574;8.768;2023-06-22T01:47:04;2.88;;;2.58;;
10831;SDS011;5469;48.574;8.768;2023-06-22T01:49:40;4.55;;;2.40;;
10831;SDS011;5469;48.574;8.768;2023-06-22T01:52:16;3.65;;;2.75;;
10831;SDS011;5469;48.574;8.768;2023-06-22T01:54:52;2.92;;;2.63;;
10831;SDS011;5469;48.574;8.768;2023-06-22T01:57:29;4.15;;;3.00;;
10831;SDS011;5469;48.574;8.768;2023-06-22T02:00:07;3.13;;;2.83;;
10831;SDS011;5469;48.574;8.768;2023-06-22T02:02:48;3.20;;;2.90;;
10831;SDS011;5469;48.574;8.768;2023-06-22T02:05:31;2.90;;;2.58;;
10831;SDS011;5469;48.574;8.768;2023-06-22T02:08:10;6.55;;;2.80;;
10831;SDS011;5469;48.574;8.768;2023-06-22T02:10:50;3.40;;;2.47;;
10831;SDS011;5469;48.574;8.768;2023-06-22T02:13:28;4.20;;;2.95;;
10831;SDS011;5469;48.574;8.768;2023-06-22T02:16:06;2.95;;;2.58;;
10831;SDS011;5469;48.574;8.768;2023-06-22T02:18:45;2.70;;;2.50;;
10831;SDS011;5469;48.574;8.768;2023-06-22T02:21:23;4.65;;;2.55;;
10831;SDS011;5469;48.574;8.768;2023-06-22T02:23:58;2.67;;;2.33;;
10831;SDS011;5469;48.574;8.768;2023-06-22T02:26:33;5.65;;;2.58;;
10831;SDS011;5469;48.574;8.768;2023-06-22T02:29:12;4.07;;;2.08;;
10831;SDS011;5469;48.574;8.768;2023-06-22T02:31:48;2.88;;;2.50;;
10831;SDS011;5469;48.574;8.768;2023-06-22T02:34:23;3.25;;;2.50;;
10831;SDS011;5469;48.574;8.768;2023-06-22T02:36:59;2.22;;;2.03;;
10831;SDS011;5469;48.574;8.768;2023-06-22T02:39:34;3.10;;;2.22;;
10831;SDS011;5469;48.574;8.768;2023-06-22T02:42:09;4.53;;;2.40;;
10831;SDS011;5469;48.574;8.768;2023-06-22T02:44:44;5.20;;;2.63;;
10831;SDS011;5469;48.574;8.768;2023-06-22T02:47:21;2.28;;;2.08;;
10831;SDS011;5469;48.574;8.768;2023-06-22T02:49:56;3.22;;;2.70;;
10831;SDS011;5469;48.574;8.768;2023-06-22T02:52:30;2.20;;;2.00;;
10831;SDS011;5469;48.574;8.768;2023-06-22T02:55:06;4.35;;;2.67;;
10831;SDS011;5469;48.574;8.768;2023-06-22T02:57:42;2.90;;;2.60;;
10831;SDS011;5469;48.574;8.768;2023-06-22T03:00:19;4.85;;;2.45;;
10831;SDS011;5469;48.574;8.768;2023-06-22T03:02:56;3.33;;;2.40;;
10831;SDS011;5469;48.574;8.768;2023-06-22T03:05:31;3.40;;;2.25;;
10831;SDS011;5469;48.574;8.768;2023-06-22T03:08:06;3.67;;;2.55;;
10831;SDS011;5469;48.574;8.768;2023-06-22T03:10:41;3.33;;;2.40;;
10831;SDS011;5469;48.574;8.768;2023-06-22T03:13:16;2.33;;;2.13;;
10831;SDS011;5469;48.574;8.768;2023-06-22T03:15:51;3.00;;;2.58;;
10831;SDS011;5469;48.574;8.768;2023-06-22T03:18:28;2.50;;;2.28;;
10831;SDS011;5469;48.574;8.768;2023-06-22T03:21:02;3.67;;;2.83;;
10831;SDS011;5469;48.574;8.768;2023-06-22T03:23:37;4.20;;;2.53;;
10831;SDS011;5469;48.574;8.768;2023-06-22T03:26:12;5.30;;;2.65;;
10831;SDS011;5469;48.574;8.768;2023-06-22T03:28:49;2.97;;;2.67;;
10831;SDS011;5469;48.574;8.768;2023-06-22T03:31:24;2.53;;;1.90;;
10831;SDS011;5469;48.574;8.768;2023-06-22T03:34:00;3.83;;;2.50;;
10831;SDS011;5469;48.574;8.768;2023-06-22T03:36:35;3.50;;;2.05;;
10831;SDS011;5469;48.574;8.768;2023-06-22T03:39:10;3.22;;;2.35;;
10831;SDS011;5469;48.574;8.768;2023-06-22T03:41:45;4.10;;;2.47;;
10831;SDS011;5469;48.574;8.768;2023-06-22T03:44:20;2.97;;;2.55;;
10831;SDS011;5469;48.574;8.768;2023-06-22T03:46:55;2.90;;;2.17;;
10831;SDS011;5469;48.574;8.768;2023-06-22T03:49:31;2.58;;;1.90;;
10831;SDS011;5469;48.574;8.768;2023-06-22T03:52:07;2.42;;;2.20;;
10831;SDS011;5469;48.574;8.768;2023-06-22T03:54:42;3.15;;;2.53;;
10831;SDS011;5469;48.574;8.768;2023-06-22T03:57:17;3.38;;;2.45;;
10831;SDS011;5469;48.574;8.768;2023-06-22T03:59:54;3.22;;;2.47;;
10831;SDS011;5469;48.574;8.768;2023-06-22T04:02:32;3.40;;;2.42;;
10831;SDS011;5469;48.574;8.768;2023-06-22T04:05:09;3.95;;;2.25;;
10831;SDS011;5469;48.574;8.768;2023-06-22T04:07:44;3.88;;;2.20;;
10831;SDS011;5469;48.574;8.768;2023-06-22T04:10:19;2.53;;;2.03;;
10831;SDS011;5469;48.574;8.768;2023-06-22T04:12:53;4.32;;;2.22;;
10831;SDS011;5469;48.574;8.768;2023-06-22T04:15:28;2.38;;;1.77;;
10831;SDS011;5469;48.574;8.768;2023-06-22T04:18:03;6.20;;;2.08;;
10831;SDS011;5469;48.574;8.768;2023-06-22T04:20:41;3.15;;;2.20;;
10831;SDS011;5469;48.574;8.768;2023-06-22T04:23:16;2.63;;;2.17;;
10831;SDS011;5469;48.574;8.768;2023-06-22T04:25:51;2.92;;;2.28;;
10831;SDS011;5469;48.574;8.768;2023-06-22T04:28:28;4.40;;;2.30;;
10831;SDS011;5469;48.574;8.768;2023-06-22T04:31:06;6.28;;;2.38;;
10831;SDS011;5469;48.574;8.768;2023-06-22T04:33:41;2.70;;;1.80;;
10831;SDS011;5469;48.574;8.768;2023-06-22T04:36:19;3.08;;;2.10;;
10831;SDS011;5469;48.574;8.768;2023-06-22T04:38:55;2.35;;;2.15;;
10831;SDS011;5469;48.574;8.768;2023-06-22T04:41:30;4.90;;;2.30;;
10831;SDS011;5469;48.574;8.768;2023-06-22T04:44:13;1.98;;;1.75;;
10831;SDS011;5469;48.574;8.768;2023-06-22T04:46:56;1.90;;;1.70;;
10831;SDS011;5469;48.574;8.768;2023-06-22T04:49:35;3.00;;;2.20;;
10831;SDS011;5469;48.574;8.768;2023-06-22T04:52:13;2.95;;;1.98;;
10831;SDS011;5469;48.574;8.768;2023-06-22T04:54:49;2.75;;;2.03;;
10831;SDS011;5469;48.574;8.768;2023-06-22T04:57:27;3.40;;;2.22;;
10831;SDS011;5469;48.574;8.768;2023-06-22T05:00:04;3.28;;;1.98;;
10831;SDS011;5469;48.574;8.768;2023-06-22T05:02:44;2.47;;;2.10;;
10831;SDS011;5469;48.574;8.768;2023-06-22T05:05:20;3.55;;;2.30;;
10831;SDS011;5469;48.574;8.768;2023-06-22T05:07:56;2.67;;;1.98;;
10831;SDS011;5469;48.574;8.768;2023-06-22T05:10:36;3.03;;;2.25;;
10831;SDS011;5469;48.574;8.768;2023-06-22T05:13:11;3.28;;;2.15;;
10831;SDS011;5469;48.574;8.768;2023-06-22T05:15:46;3.45;;;2.05;;
10831;SDS011;5469;48.574;8.768;2023-06-22T05:18:20;2.10;;;1.90;;
10831;SDS011;5469;48.574;8.768;2023-06-22T05:20:55;2.75;;;2.30;;
10831;SDS011;5469;48.574;8.768;2023-06-22T05:23:33;2.78;;;2.20;;
10831;SDS011;5469;48.574;8.768;2023-06-22T05:26:08;2.65;;;2.40;;
10831;SDS011;5469;48.574;8.768;2023-06-22T05:28:43;2.63;;;2.20;;
10831;SDS011;5469;48.574;8.768;2023-06-22T05:31:18;3.95;;;2.28;;
10831;SDS011;5469;48.574;8.768;2023-06-22T05:33:55;3.13;;;1.95;;
10831;SDS011;5469;48.574;8.768;2023-06-22T05:36:31;2.53;;;2.00;;
10831;SDS011;5469;48.574;8.768;2023-06-22T05:39:12;2.35;;;1.85;;
10831;SDS011;5469;48.574;8.768;2023-06-22T05:41:47;3.75;;;2.00;;
10831;SDS011;5469;48.574;8.768;2023-06-22T05:44:22;3.17;;;2.05;;
10831;SDS011;5469;48.574;8.768;2023-06-22T05:46:57;2.65;;;2.17;;
10831;SDS011;5469;48.574;8.768;2023-06-22T05:49:32;3.92;;;1.90;;
10831;SDS011;5469;48.574;8.768;2023-06-22T05:52:07;1.80;;;1.70;;
10831;SDS011;5469;48.574;8.768;2023-06-22T05:54:43;2.55;;;1.83;;
10831;SDS011;5469;48.574;8.768;2023-06-22T05:57:19;2.67;;;2.35;;
10831;SDS011;5469;48.574;8.768;2023-06-22T05:59:54;2.38;;;2.08;;
10831;SDS011;5469;48.574;8.768;2023-06-22T06:02:29;2.10;;;1.75;;
10831;SDS011;5469;48.574;8.768;2023-06-22T06:05:05;2.72;;;2.10;;
10831;SDS011;5469;48.574;8.768;2023-06-22T06:07:40;2.85;;;1.70;;
10831;SDS011;5469;48.574;8.768;2023-06-22T06:10:17;4.43;;;2.10;;
10831;SDS011;5469;48.574;8.768;2023-06-22T06:12:52;2.92;;;2.28;;
10831;SDS011;5469;48.574;8.768;2023-06-22T06:15:27;2.38;;;1.75;;
10831;SDS011;5469;48.574;8.768;2023-06-22T06:18:03;2.78;;;2.30;;
10831;SDS011;5469;48.574;8.768;2023-06-22T06:20:38;3.30;;;1.98;;
10831;SDS011;5469;48.574;8.768;2023-06-22T06:23:14;3.58;;;1.90;;
10831;SDS011;5469;48.574;8.768;2023-06-22T06:25:50;4.50;;;2.17;;
10831;SDS011;5469;48.574;8.768;2023-06-22T06:28:25;2.30;;;2.10;;
10831;SDS011;5469;48.574;8.768;2023-06-22T06:31:00;2.83;;;1.73;;
10831;SDS011;5469;48.574;8.768;2023-06-22T06:33:38;3.05;;;2.17;;
10831;SDS011;5469;48.574;8.768;2023-06-22T06:36:13;3.53;;;2.20;;
10831;SDS011;5469;48.574;8.768;2023-06-22T06:38:48;2.15;;;1.65;;
10831;SDS011;5469;48.574;8.768;2023-06-22T06:41:24;2.80;;;1.95;;
10831;SDS011;5469;48.574;8.768;2023-06-22T06:43:59;2.58;;;1.80;;
10831;SDS011;5469;48.574;8.768;2023-06-22T06:46:34;3.05;;;1.83;;
10831;SDS011;5469;48.574;8.768;2023-06-22T06:49:09;2.13;;;1.83;;
10831;SDS011;5469;48.574;8.768;2023-06-22T06:51:45;6.10;;;1.70;;
10831;SDS011;5469;48.574;8.768;2023-06-22T06:54:20;2.63;;;1.45;;
10831;SDS011;5469;48.574;8.768;2023-06-22T06:56:56;3.10;;;1.90;;
10831;SDS011;5469;48.574;8.768;2023-06-22T06:59:31;5.78;;;2.40;;
10831;SDS011;5469;48.574;8.768;2023-06-22T07:02:06;4.15;;;2.13;;
10831;SDS011;5469;48.574;8.768;2023-06-22T07:04:41;3.97;;;1.92;;
10831;SDS011;5469;48.574;8.768;2023-06-22T07:07:16;1.92;;;1.67;;
10831;SDS011;5469;48.574;8.768;2023-06-22T07:09:51;3.20;;;2.10;;
10831;SDS011;5469;48.574;8.768;2023-06-22T07:12:27;3.38;;;1.77;;
10831;SDS011;5469;48.574;8.768;2023-06-22T07:15:03;4.05;;;2.00;;
10831;SDS011;5469;48.574;8.768;2023-06-22T07:17:40;1.92;;;1.65;;
10831;SDS011;5469;48.574;8.768;2023-06-22T07:20:15;2.08;;;1.88;;
10831;SDS011;5469;48.574;8.768;2023-06-22T07:22:51;3.83;;;1.77;;
10831;SDS011;5469;48.574;8.768;2023-06-22T07:25:28;3.33;;;2.00;;
10831;SDS011;5469;48.574;8.768;2023-06-22T07:28:05;2.40;;;1.70;;
10831;SDS011;5469;48.574;8.768;2023-06-22T07:30:40;2.72;;;1.92;;
10831;SDS011;5469;48.574;8.768;2023-06-22T07:33:15;4.28;;;2.45;;
10831;SDS011;5469;48.574;8.768;2023-06-22T07:35:51;3.95;;;2.55;;
10831;SDS011;5469;48.574;8.768;2023-06-22T07:38:26;4.28;;;1.90;;
10831;SDS011;5469;48.574;8.768;2023-06-22T07:41:01;3.25;;;1.88;;
10831;SDS011;5469;48.574;8.768;2023-06-22T07:43:38;2.35;;;1.88;;
10831;SDS011;5469;48.574;8.768;2023-06-22T07:46:13;3.90;;;2.25;;
10831;SDS011;5469;48.574;8.768;2023-06-22T07:48:48;5.20;;;2.10;;
10831;SDS011;5469;48.574;8.768;2023-06-22T07:51:24;2.50;;;2.05;;
10831;SDS011;5469;48.574;8.768;2023-06-22T07:53:59;4.43;;;2.33;;
10831;SDS011;5469;48.574;8.768;2023-06-22T07:56:34;2.45;;;2.25;;
10831;SDS011;5469;48.574;8.768;2023-06-22T07:59:10;3.17;;;1.95;;
10831;SDS011;5469;48.574;8.768;2023-06-22T08:01:45;6.13;;;2.00;;
10831;SDS011;5469;48.574;8.768;2023-06-22T08:04:21;2.78;;;2.33;;
10831;SDS011;5469;48.574;8.768;2023-06-22T08:06:56;4.65;;;2.13;;
10831;SDS011;5469;48.574;8.768;2023-06-22T08:09:32;2.40;;;1.90;;
10831;SDS011;5469;48.574;8.768;2023-06-22T08:12:08;3.47;;;1.80;;
10831;SDS011;5469;48.574;8.768;2023-06-22T08:14:46;2.47;;;2.15;;
10831;SDS011;5469;48.574;8.768;2023-06-22T08:17:21;4.75;;;2.05;;
10831;SDS011;5469;48.574;8.768;2023-06-22T08:19:56;2.35;;;1.80;;
10831;SDS011;5469;48.574;8.768;2023-06-22T08:22:31;4.88;;;2.13;;
10831;SDS011;5469;48.574;8.768;2023-06-22T08:25:08;4.43;;;2.45;;
10831;SDS011;5469;48.574;8.768;2023-06-22T08:27:45;5.93;;;2.22;;
10831;SDS011;5469;48.574;8.768;2023-06-22T08:30:22;2.28;;;2.00;;
10831;SDS011;5469;48.574;8.768;2023-06-22T08:32:57;2.97;;;1.90;;
10831;SDS011;5469;48.574;8.768;2023-06-22T08:35:32;4.65;;;1.90;;
10831;SDS011;5469;48.574;8.768;2023-06-22T08:38:07;4.50;;;2.00;;
10831;SDS011;5469;48.574;8.768;2023-06-22T08:40:42;2.35;;;2.15;;
10831;SDS011;5469;48.574;8.768;2023-06-22T08:43:17;2.10;;;1.90;;
10831;SDS011;5469;48.574;8.768;2023-06-22T08:45:53;2.60;;;2.05;;
10831;SDS011;5469;48.574;8.768;2023-06-22T08:48:29;2.55;;;2.15;;
10831;SDS011;5469;48.574;8.768;2023-06-22T08:51:04;2.50;;;2.10;;
10831;SDS011;5469;48.574;8.768;2023-06-22T08:53:39;4.05;;;1.80;;
10831;SDS011;5469;48.574;8.768;2023-06-22T08:56:14;4.47;;;2.40;;
10831;SDS011;5469;48.574;8.768;2023-06-22T08:58:49;2.80;;;2.45;;
10831;SDS011;5469;48.574;8.768;2023-06-22T09:01:26;3.00;;;2.22;;
10831;SDS011;5469;48.574;8.768;2023-06-22T09:04:00;2.85;;;2.17;;
10831;SDS011;5469;48.574;8.768;2023-06-22T09:06:37;2.92;;;2.28;;
10831;SDS011;5469;48.574;8.768;2023-06-22T09:09:16;4.50;;;2.25;;
10831;SDS011;5469;48.574;8.768;2023-06-22T09:11:51;4.30;;;2.45;;
10831;SDS011;5469;48.574;8.768;2023-06-22T09:14:26;3.75;;;2.33;;
10831;SDS011;5469;48.574;8.768;2023-06-22T09:17:03;5.95;;;2.20;;
10831;SDS011;5469;48.574;8.768;2023-06-22T09:19:39;3.92;;;2.20;;
10831;SDS011;5469;48.574;8.768;2023-06-22T09:22:15;7.47;;;2.55;;
10831;SDS011;5469;48.574;8.768;2023-06-22T09:24:50;2.97;;;2.30;;
10831;SDS011;5469;48.574;8.768;2023-06-22T09:27:25;3.08;;;2.13;;
10831;SDS011;5469;48.574;8.768;2023-06-22T09:30:00;4.38;;;2.40;;
10831;SDS011;5469;48.574;8.768;2023-06-22T09:32:36;5.50;;;2.40;;
10831;SDS011;5469;48.574;8.768;2023-06-22T09:35:12;3.00;;;2.47;;
10831;SDS011;5469;48.574;8.768;2023-06-22T09:37:46;2.72;;;1.92;;
10831;SDS011;5469;48.574;8.768;2023-06-22T09:40:21;5.97;;;2.10;;
10831;SDS011;5469;48.574;8.768;2023-06-22T09:42:57;2.55;;;2.03;;
10831;SDS011;5469;48.574;8.768;2023-06-22T09:45:31;3.15;;;2.20;;
10831;SDS011;5469;48.574;8.768;2023-06-22T09:48:08;2.72;;;2.30;;
10831;SDS011;5469;48.574;8.768;2023-06-22T09:50:43;2.00;;;1.70;;
10831;SDS011;5469;48.574;8.768;2023-06-22T09:53:18;3.28;;;2.25;;
10831;SDS011;5469;48.574;8.768;2023-06-22T09:55:53;2.33;;;1.70;;
10831;SDS011;5469;48.574;8.768;2023-06-22T09:58:28;3.42;;;2.42;;
10831;SDS011;5469;48.574;8.768;2023-06-22T10:01:04;3.45;;;2.30;;
10831;SDS011;5469;48.574;8.768;2023-06-22T10:03:40;4.95;;;2.30;;
10831;SDS011;5469;48.574;8.768;2023-06-22T10:06:15;4.63;;;2.00;;
10831;SDS011;5469;48.574;8.768;2023-06-22T10:08:51;2.75;;;2.00;;
10831;SDS011;5469;48.574;8.768;2023-06-22T10:11:26;2.53;;;2.10;;
10831;SDS011;5469;48.574;8.768;2023-06-22T10:14:02;2.65;;;1.98;;
10831;SDS011;5469;48.574;8.768;2023-06-22T10:16:37;2.10;;;1.90;;
10831;SDS011;5469;48.574;8.768;2023-06-22T10:19:14;5.05;;;1.80;;
10831;SDS011;5469;48.574;8.768;2023-06-22T10:21:49;1.73;;;1.60;;
10831;SDS011;5469;48.574;8.768;2023-06-22T10:24:24;4.13;;;2.35;;
10831;SDS011;5469;48.574;8.768;2023-06-22T10:26:59;3.33;;;1.98;;
10831;SDS011;5469;48.574;8.768;2023-06-22T10:29:34;3.03;;;2.08;;
10831;SDS011;5469;48.574;8.768;2023-06-22T10:32:09;2.22;;;2.00;;
10831;SDS011;5469;48.574;8.768;2023-06-22T10:34:45;2.63;;;2.08;;
10831;SDS011;5469;48.574;8.768;2023-06-22T10:37:20;3.45;;;2.28;;
10831;SDS011;5469;48.574;8.768;2023-06-22T10:39:55;2.78;;;1.80;;
10831;SDS011;5469;48.574;8.768;2023-06-22T10:42:30;2.40;;;1.60;;
10831;SDS011;5469;48.574;8.768;2023-06-22T10:45:06;2.60;;;1.88;;
10831;SDS011;5469;48.574;8.768;2023-06-22T10:47:43;3.08;;;1.90;;
10831;SDS011;5469;48.574;8.768;2023-06-22T10:50:19;4.57;;;2.28;;
10831;SDS011;5469;48.574;8.768;2023-06-22T10:52:55;2.53;;;1.92;;
10831;SDS011;5469;48.574;8.768;2023-06-22T10:55:30;2.90;;;2.08;;
10831;SDS011;5469;48.574;8.768;2023-06-22T10:58:05;2.70;;;2.30;;
10831;SDS011;5469;48.574;8.768;2023-06-22T11:00:40;5.38;;;2.13;;
10831;SDS011;5469;48.574;8.768;2023-06-22T11:03:15;2.33;;;2.13;;
10831;SDS011;5469;48.574;8.768;2023-06-22T11:05:51;2.30;;;2.10;;
10831;SDS011;5469;48.574;8.768;2023-06-22T11:08:26;3.30;;;2.42;;
10831;SDS011;5469;48.574;8.768;2023-06-22T11:11:01;3.58;;;1.98;;
10831;SDS011;5469;48.574;8.768;2023-06-22T11:13:36;3.15;;;2.33;;
10831;SDS011;5469;48.574;8.768;2023-06-22T11:16:11;2.75;;;2.45;;
10831;SDS011;5469;48.574;8.768;2023-06-22T11:18:46;3.40;;;2.17;;
10831;SDS011;5469;48.574;8.768;2023-06-22T11:21:22;3.20;;;1.90;;
10831;SDS011;5469;48.574;8.768;2023-06-22T11:23:57;2.67;;;2.00;;
10831;SDS011;5469;48.574;8.768;2023-06-22T11:26:33;2.78;;;1.60;;
10831;SDS011;5469;48.574;8.768;2023-06-22T11:29:11;3.08;;;2.22;;
10831;SDS011;5469;48.574;8.768;2023-06-22T11:31:46;5.38;;;2.50;;
10831;SDS011;5469;48.574;8.768;2023-06-22T11:34:21;2.90;;;1.98;;
10831;SDS011;5469;48.574;8.768;2023-06-22T11:36:57;3.30;;;2.30;;
10831;SDS011;5469;48.574;8.768;2023-06-22T11:39:33;3.20;;;2.20;;
10831;SDS011;5469;48.574;8.768;2023-06-22T11:42:08;2.95;;;2.05;;
10831;SDS011;5469;48.574;8.768;2023-06-22T11:44:43;4.03;;;2.10;;
10831;SDS011;5469;48.574;8.768;2023-06-22T11:47:18;3.05;;;2.30;;
10831;SDS011;5469;48.574;8.768;2023-06-22T11:49:53;2.63;;;2.40;;
10831;SDS011;5469;48.574;8.768;2023-06-22T11:52:30;3.30;;;1.90;;
10831;SDS011;5469;48.574;8.768;2023-06-22T11:55:09;3.17;;;2.10;;
10831;SDS011;5469;48.574;8.768;2023-06-22T11:57:51;2.50;;;2.20;;
10831;SDS011;5469;48.574;8.768;2023-06-22T12:00:27;2.80;;;1.98;;
10831;SDS011;5469;48.574;8.768;2023-06-22T12:03:02;6.70;;;2.60;;
10831;SDS011;5469;48.574;8.768;2023-06-22T12:05:37;1.85;;;1.50;;
10831;SDS011;5469;48.574;8.768;2023-06-22T12:08:14;4.57;;;2.35;;
10831;SDS011;5469;48.574;8.768;2023-06-22T12:10:50;5.35;;;2.75;;
10831;SDS011;5469;48.574;8.768;2023-06-22T12:13:26;3.70;;;2.47;;
10831;SDS011;5469;48.574;8.768;2023-06-22T12:16:01;3.22;;;2.60;;
10831;SDS011;5469;48.574;8.768;2023-06-22T12:18:36;3.72;;;2.47;;
10831;SDS011;5469;48.574;8.768;2023-06-22T12:21:11;3.35;;;2.35;;
10831;SDS011;5469;48.574;8.768;2023-06-22T12:23:47;3.13;;;2.15;;
10831;SDS011;5469;48.574;8.768;2023-06-22T12:26:23;4.65;;;2.58;;
10831;SDS011;5469;48.574;8.768;2023-06-22T12:28:59;2.78;;;2.28;;
10831;SDS011;5469;48.574;8.768;2023-06-22T12:31:34;2.60;;;2.10;;
10831;SDS011;5469;48.574;8.768;2023-06-22T12:34:10;3.60;;;2.40;;
10831;SDS011;5469;48.574;8.768;2023-06-22T12:36:45;5.68;;;2.70;;
10831;SDS011;5469;48.574;8.768;2023-06-22T12:39:21;4.05;;;2.35;;
10831;SDS011;5469;48.574;8.768;2023-06-22T12:41:56;5.00;;;2.22;;
10831;SDS011;5469;48.574;8.768;2023-06-22T12:44:31;5.55;;;2.75;;
10831;SDS011;5469;48.574;8.768;2023-06-22T12:47:06;4.45;;;2.08;;
10831;SDS011;5469;48.574;8.768;2023-06-22T12:49:41;2.47;;;2.20;;
10831;SDS011;5469;48.574;8.768;2023-06-22T12:52:16;3.50;;;2.58;;
10831;SDS011;5469;48.574;8.768;2023-06-22T12:54:52;4.07;;;2.70;;
10831;SDS011;5469;48.574;8.768;2023-06-22T12:57:27;2.42;;;2.22;;
10831;SDS011;5469;48.574;8.768;2023-06-22T13:00:02;3.97;;;2.33;;
10831;SDS011;5469;48.574;8.768;2023-06-22T13:02:39;2.70;;;2.25;;
10831;SDS011;5469;48.574;8.768;2023-06-22T13:05:14;2.40;;;2.20;;
10831;SDS011;5469;48.574;8.768;2023-06-22T13:07:49;3.30;;;2.35;;
10831;SDS011;5469;48.574;8.768;2023-06-22T13:10:25;6.93;;;2.80;;
10831;SDS011;5469;48.574;8.768;2023-06-22T13:13:00;3.97;;;2.53;;
10831;SDS011;5469;48.574;8.768;2023-06-22T13:15:35;3.25;;;2.45;;
10831;SDS011;5469;48.574;8.768;2023-06-22T13:18:10;4.13;;;2.80;;
10831;SDS011;5469;48.574;8.768;2023-06-22T13:20:45;3.13;;;2.42;;
10831;SDS011;5469;48.574;8.768;2023-06-22T13:23:20;4.28;;;2.50;;
10831;SDS011;5469;48.574;8.768;2023-06-22T13:25:57;7.95;;;2.85;;
10831;SDS011;5469;48.574;8.768;2023-06-22T13:28:33;2.83;;;2.53;;
10831;SDS011;5469;48.574;8.768;2023-06-22T13:31:07;3.08;;;2.70;;
10831;SDS011;5469;48.574;8.768;2023-06-22T13:33:42;3.60;;;2.40;;
10831;SDS011;5469;48.574;8.768;2023-06-22T13:36:19;3.42;;;2.78;;
10831;SDS011;5469;48.574;8.768;2023-06-22T13:38:55;3.40;;;2.45;;
10831;SDS011;5469;48.574;8.768;2023-06-22T13:41:31;2.95;;;2.22;;
10831;SDS011;5469;48.574;8.768;2023-06-22T13:44:06;3.03;;;2.65;;
10831;SDS011;5469;48.574;8.768;2023-06-22T13:46:41;4.55;;;2.50;;
10831;SDS011;5469;48.574;8.768;2023-06-22T13:49:16;3.17;;;2.40;;
10831;SDS011;5469;48.574;8.768;2023-06-22T13:51:51;3.05;;;2.00;;
10831;SDS011;5469;48.574;8.768;2023-06-22T13:54:26;3.65;;;1.88;;
10831;SDS011;5469;48.574;8.768;2023-06-22T13:57:02;4.47;;;1.80;;
10831;SDS011;5469;48.574;8.768;2023-06-22T13:59:38;2.28;;;1.92;;
10831;SDS011;5469;48.574;8.768;2023-06-22T14:02:13;2.45;;;1.55;;
10831;SDS011;5469;48.574;8.768;2023-06-22T14:04:48;2.08;;;1.33;;
10831;SDS011;5469;48.574;8.768;2023-06-22T14:07:22;2.05;;;1.45;;
10831;SDS011;5469;48.574;8.768;2023-06-22T14:09:57;4.00;;;1.38;;
10831;SDS011;5469;48.574;8.768;2023-06-22T14:12:34;3.72;;;1.35;;
10831;SDS011;5469;48.574;8.768;2023-06-22T14:15:09;1.88;;;1.30;;
10831;SDS011;5469;48.574;8.768;2023-06-22T14:17:45;1.75;;;1.23;;
10831;SDS011;5469;48.574;8.768;2023-06-22T14:20:20;1.25;;;1.02;;
10831;SDS011;5469;48.574;8.768;2023-06-22T14:22:55;2.38;;;1.40;;
10831;SDS011;5469;48.574;8.768;2023-06-22T14:25:31;3.15;;;0.93;;
10831;SDS011;5469;48.574;8.768;2023-06-22T14:28:07;6.50;;;1.40;;
10831;SDS011;5469;48.574;8.768;2023-06-22T14:30:43;3.30;;;1.63;;
10831;SDS011;5469;48.574;8.768;2023-06-22T14:33:19;1.80;;;1.30;;
10831;SDS011;5469;48.574;8.768;2023-06-22T14:35:53;1.58;;;1.08;;
10831;SDS011;5469;48.574;8.768;2023-06-22T14:38:28;2.47;;;1.20;;
10831;SDS011;5469;48.574;8.768;2023-06-22T14:41:03;4.07;;;1.05;;
10831;SDS011;5469;48.574;8.768;2023-06-22T14:43:42;4.68;;;1.23;;
10831;SDS011;5469;48.574;8.768;2023-06-22T14:46:17;2.33;;;1.10;;
10831;SDS011;5469;48.574;8.768;2023-06-22T14:48:53;2.35;;;1.25;;
10831;SDS011;5469;48.574;8.768;2023-06-22T14:51:28;4.82;;;1.23;;
10831;SDS011;5469;48.574;8.768;2023-06-22T14:54:03;0.88;;;0.80;;
10831;SDS011;5469;48.574;8.768;2023-06-22T14:56:38;1.10;;;1.00;;
10831;SDS011;5469;48.574;8.768;2023-06-22T14:59:15;1.23;;;1.13;;
10831;SDS011;5469;48.574;8.768;2023-06-22T15:01:51;2.42;;;1.10;;
10831;SDS011;5469;48.574;8.768;2023-06-22T15:04:26;3.88;;;1.65;;
10831;SDS011;5469;48.574;8.768;2023-06-22T15:07:06;3.78;;;1.42;;
10831;SDS011;5469;48.574;8.768;2023-06-22T15:09:41;2.25;;;1.25;;
10831;SDS011;5469;48.574;8.768;2023-06-22T15:12:17;3.65;;;1.45;;
10831;SDS011;5469;48.574;8.768;2023-06-22T15:14:53;6.13;;;1.20;;
10831;SDS011;5469;48.574;8.768;2023-06-22T15:17:28;1.83;;;1.15;;
10831;SDS011;5469;48.574;8.768;2023-06-22T15:20:04;1.70;;;1.15;;
10831;SDS011;5469;48.574;8.768;2023-06-22T15:22:40;2.05;;;1.40;;
10831;SDS011;5469;48.574;8.768;2023-06-22T15:25:15;2.05;;;1.10;;
10831;SDS011;5469;48.574;8.768;2023-06-22T15:27:50;1.92;;;1.20;;
10831;SDS011;5469;48.574;8.768;2023-06-22T15:30:26;2.30;;;1.10;;
10831;SDS011;5469;48.574;8.768;2023-06-22T15:33:02;1.70;;;1.27;;
10831;SDS011;5469;48.574;8.768;2023-06-22T15:35:37;1.85;;;1.15;;
10831;SDS011;5469;48.574;8.768;2023-06-22T15:38:12;2.72;;;1.30;;
10831;SDS011;5469;48.574;8.768;2023-06-22T15:40:47;6.30;;;1.42;;
10831;SDS011;5469;48.574;8.768;2023-06-22T15:43:22;1.67;;;1.10;;
10831;SDS011;5469;48.574;8.768;2023-06-22T15:45:58;4.00;;;1.35;;
10831;SDS011;5469;48.574;8.768;2023-06-22T15:48:34;4.10;;;1.35;;
10831;SDS011;5469;48.574;8.768;2023-06-22T15:51:09;3.58;;;1.30;;
10831;SDS011;5469;48.574;8.768;2023-06-22T15:53:44;1.38;;;1.20;;